Time;durP1;ratioP1;P1;durP2;ratioP2;P2;SDS_P1;SDS_P2;PMS_P1;PMS_P2;Temp;Humidity;BMP_temperature;BMP_pressure;BME280_temperature;BME280_humidity;BME280_pressure;Samples;Min_cycle;Max_cycle;Signal;HPM_P1;HPM_P2
2022/08/17 00:00:48;;;;;;;6.20;5.60;;;27.90;55.90;;;;;;5041090;28;20251;-90
2022/08/17 00:03:19;;;;;;;6.43;5.03;;;27.90;55.80;;;;;;5046053;28;20203;-91
2022/08/17 00:06:05;;;;;;;6.33;5.40;;;27.90;55.80;;;;;;5039484;28;20172;-90
2022/08/17 00:08:35;;;;;;;7.33;6.13;;;27.80;55.80;;;;;;5024500;28;20160;-91
2022/08/17 00:11:06;;;;;;;6.60;5.90;;;27.80;56.10;;;;;;5042750;28;20172;-91
2022/08/17 00:13:44;;;;;;;7.33;5.80;;;27.80;56.20;;;;;;5032487;28;20559;-90
2022/08/17 00:16:23;;;;;;;8.10;6.53;;;27.70;56.40;;;;;;5040036;28;20618;-91
2022/08/17 00:18:51;;;;;;;7.10;6.23;;;27.60;56.30;;;;;;5040549;28;20176;-90
2022/08/17 00:24:30;;;;;;;6.50;5.63;;;27.50;56.40;;;;;;5063372;28;20226;-91
2022/08/17 00:27:40;;;;;;;6.30;5.70;;;27.60;56.40;;;;;;5046094;28;20176;-91
2022/08/17 00:30:14;;;;;;;5.67;5.17;;;27.60;56.40;;;;;;5038699;28;20184;-91
2022/08/17 00:32:46;;;;;;;6.30;5.70;;;27.60;56.40;;;;;;5052863;28;20217;-91
2022/08/17 00:35:16;;;;;;;6.03;5.43;;;27.60;56.40;;;;;;5024364;28;20255;-91
2022/08/17 00:38:14;;;;;;;6.37;5.27;;;27.60;56.30;;;;;;5038699;28;20157;-90
2022/08/17 00:40:59;;;;;;;6.00;5.40;;;27.60;56.30;;;;;;5048739;28;20191;-90
2022/08/17 00:43:48;;;;;;;6.17;5.63;;;27.70;56.40;;;;;;5042308;28;20284;-90
2022/08/17 00:46:41;;;;;;;6.27;5.53;;;27.70;56.30;;;;;;5051903;28;20198;-90
2022/08/17 00:49:11;;;;;;;6.07;5.50;;;27.60;56.30;;;;;;5038209;28;20535;-90
2022/08/17 00:51:40;;;;;;;6.20;5.60;;;27.60;56.40;;;;;;5047426;28;20433;-89
2022/08/17 00:54:13;;;;;;;6.43;5.83;;;27.60;56.40;;;;;;5046374;28;20178;-90
2022/08/17 00:56:49;;;;;;;5.70;5.20;;;27.60;56.50;;;;;;5033621;28;20257;-90
2022/08/17 00:59:18;;;;;;;5.97;5.37;;;27.60;56.40;;;;;;5040931;28;20172;-90
2022/08/17 01:01:46;;;;;;;6.23;5.63;;;27.60;56.60;;;;;;5029757;28;20577;-90
2022/08/17 01:04:15;;;;;;;6.40;5.73;;;27.60;56.60;;;;;;5049367;28;20200;-90
2022/08/17 01:06:48;;;;;;;6.37;5.80;;;27.60;56.70;;;;;;5025812;28;20179;-89
2022/08/17 01:11:43;;;;;;;6.20;5.70;;;27.50;56.80;;;;;;5031547;28;20220;-75
2022/08/17 01:14:09;;;;;;;6.13;5.53;;;27.50;56.90;;;;;;5046903;28;20168;-75
2022/08/17 01:16:38;;;;;;;6.10;5.50;;;27.50;56.90;;;;;;5027485;28;20192;-75
2022/08/17 01:19:13;;;;;;;6.30;5.70;;;27.50;56.90;;;;;;5021526;28;20169;-75
2022/08/17 01:21:59;;;;;;;6.70;6.10;;;27.50;57.00;;;;;;5024552;28;20425;-75
2022/08/17 01:24:26;;;;;;;7.00;6.30;;;27.50;57.00;;;;;;5025893;28;20215;-74
2022/08/17 01:27:08;;;;;;;6.47;5.87;;;27.50;57.10;;;;;;5030761;28;20176;-72
2022/08/17 01:29:37;;;;;;;6.40;5.90;;;27.50;57.10;;;;;;5044317;28;20442;-72
2022/08/17 01:32:05;;;;;;;6.70;6.10;;;27.40;57.10;;;;;;5047794;28;20168;-72
2022/08/17 01:34:31;;;;;;;6.40;5.53;;;27.50;57.20;;;;;;5029650;28;20216;-72
2022/08/17 01:36:57;;;;;;;6.30;5.70;;;27.40;57.20;;;;;;5036461;28;20565;-72
2022/08/17 01:39:23;;;;;;;6.40;5.80;;;27.40;57.30;;;;;;5034357;28;20188;-72
2022/08/17 01:42:11;;;;;;;6.30;5.80;;;27.40;57.40;;;;;;5018490;28;20188;-72
2022/08/17 01:44:57;;;;;;;6.90;6.10;;;27.40;57.40;;;;;;5020622;28;20220;-72
2022/08/17 01:47:23;;;;;;;7.23;5.83;;;27.40;57.40;;;;;;5043333;28;20298;-72
2022/08/17 01:49:49;;;;;;;6.43;5.40;;;27.40;57.50;;;;;;5033114;28;20187;-72
2022/08/17 01:52:16;;;;;;;6.40;5.80;;;27.40;57.60;;;;;;5051845;28;20176;-72
2022/08/17 01:54:46;;;;;;;6.50;5.90;;;27.40;57.50;;;;;;5030537;28;20254;-72
2022/08/17 01:57:12;;;;;;;6.07;5.53;;;27.30;57.50;;;;;;5031720;28;20482;-72
2022/08/17 01:59:41;;;;;;;7.70;6.47;;;27.30;57.60;;;;;;5009044;28;20643;-71
2022/08/17 02:05:29;;;;;;;7.43;6.33;;;27.30;57.70;;;;;;5031405;28;20572;-72
2022/08/17 02:08:20;;;;;;;6.60;5.90;;;27.30;57.70;;;;;;5037053;28;20177;-74
2022/08/17 02:14:09;;;;;;;8.03;6.40;;;27.20;57.80;;;;;;5041573;28;20323;-74
2022/08/17 02:19:56;;;;;;;7.13;6.10;;;27.20;57.80;;;;;;5025319;28;20686;-74
2022/08/17 02:23:14;;;;;;;6.87;6.27;;;27.20;57.80;;;;;;5019602;28;20204;-73
2022/08/17 02:32:36;;;;;;;7.10;6.50;;;27.20;58.00;;;;;;5033844;28;20167;-74
2022/08/17 02:35:03;;;;;;;6.73;6.13;;;27.20;58.10;;;;;;5024331;28;20207;-74
2022/08/17 02:37:29;;;;;;;6.73;6.20;;;27.10;58.10;;;;;;5019240;28;20183;-74
2022/08/17 02:39:57;;;;;;;6.83;6.13;;;27.10;58.00;;;;;;5041218;28;20173;-74
2022/08/17 02:42:38;;;;;;;6.97;6.27;;;27.20;58.20;;;;;;5018412;28;20204;-74
2022/08/17 02:45:07;;;;;;;6.97;5.90;;;27.10;58.10;;;;;;5031226;28;20779;-73
2022/08/17 02:50:40;;;;;;;6.90;6.30;;;27.10;58.20;;;;;;5036948;28;20242;-73
2022/08/17 02:53:06;;;;;;;6.70;6.00;;;27.10;58.10;;;;;;5032794;28;20184;-73
2022/08/17 02:55:40;;;;;;;8.53;6.27;;;27.10;58.20;;;;;;5045455;28;20168;-73
2022/08/17 02:58:40;;;;;;;7.13;6.40;;;27.10;58.20;;;;;;5027030;28;20561;-73
2022/08/17 03:01:09;;;;;;;8.10;6.73;;;27.10;58.60;;;;;;5014426;28;20454;-74
2022/08/17 03:03:36;;;;;;;7.20;6.50;;;27.10;58.20;;;;;;5047733;28;20203;-74
2022/08/17 03:06:02;;;;;;;8.13;6.37;;;27.00;58.10;;;;;;5040571;28;20184;-73
2022/08/17 03:08:29;;;;;;;6.90;6.20;;;27.10;58.20;;;;;;5031447;28;20431;-74
2022/08/17 03:14:26;;;;;;;7.17;6.53;;;27.00;58.20;;;;;;5043130;28;20559;-74
2022/08/17 03:16:51;;;;;;;10.77;7.37;;;27.00;58.20;;;;;;5037646;28;20180;-74
2022/08/17 03:19:17;;;;;;;8.83;7.13;;;27.00;58.50;;;;;;5009450;28;20434;-74
2022/08/17 03:21:43;;;;;;;7.60;6.87;;;27.00;58.40;;;;;;5032969;28;20486;-73
2022/08/17 03:24:09;;;;;;;6.77;6.17;;;26.90;58.40;;;;;;5031898;28;20420;-74
2022/08/17 03:29:58;;;;;;;8.90;7.10;;;26.90;58.40;;;;;;5036138;28;20171;-74
2022/08/17 03:32:53;;;;;;;7.27;6.60;;;26.90;58.40;;;;;;5037385;28;20169;-73
2022/08/17 03:35:26;;;;;;;7.07;6.37;;;26.90;58.30;;;;;;5039089;28;20554;-74
2022/08/17 03:37:53;;;;;;;7.40;6.70;;;26.90;58.40;;;;;;5067488;28;20217;-73
2022/08/17 03:40:46;;;;;;;7.23;6.53;;;26.90;58.30;;;;;;5066890;28;20258;-74
2022/08/17 03:44:12;;;;;;;6.53;5.93;;;26.90;58.30;;;;;;5046235;28;20459;-73
2022/08/17 03:58:13;;;;;;;8.10;7.30;;;26.80;58.40;;;;;;5030831;28;20171;-73
2022/08/17 04:00:39;;;;;;;7.37;6.67;;;26.80;58.30;;;;;;5050955;28;20172;-74
2022/08/17 04:03:05;;;;;;;7.93;6.90;;;26.80;58.30;;;;;;5039824;28;20199;-73
2022/08/17 04:05:31;;;;;;;9.10;7.17;;;26.80;58.40;;;;;;5053916;28;20159;-73
2022/08/17 04:11:59;;;;;;;8.13;6.73;;;26.80;58.40;;;;;;5059708;28;20165;-74
2022/08/17 04:14:25;;;;;;;9.93;6.93;;;26.80;58.40;;;;;;5069978;28;20277;-73
2022/08/17 04:16:50;;;;;;;8.73;6.80;;;26.80;58.40;;;;;;5057960;28;20648;-73
2022/08/17 04:19:16;;;;;;;10.33;7.13;;;26.70;58.40;;;;;;5062855;28;20214;-73
2022/08/17 04:21:42;;;;;;;8.37;7.13;;;26.70;58.40;;;;;;5068800;28;20533;-73
2022/08/17 04:24:08;;;;;;;8.57;7.00;;;26.70;58.40;;;;;;5062667;28;20288;-73
2022/08/17 04:26:33;;;;;;;8.17;7.37;;;26.70;58.40;;;;;;5065164;28;20168;-74
2022/08/17 04:28:59;;;;;;;9.50;7.37;;;26.70;58.50;;;;;;5057218;28;20609;-73
2022/08/17 04:31:26;;;;;;;8.97;6.80;;;26.70;58.50;;;;;;5062976;28;20168;-73
2022/08/17 04:33:53;;;;;;;7.20;6.50;;;26.70;58.50;;;;;;5062018;28;20181;-74
2022/08/17 04:36:19;;;;;;;10.00;7.47;;;26.70;58.50;;;;;;5062893;28;20179;-74
2022/08/17 04:38:48;;;;;;;8.23;7.40;;;26.70;58.60;;;;;;5063156;28;20245;-73
2022/08/17 04:44:03;;;;;;;7.90;7.10;;;26.60;58.50;;;;;;5067348;28;20619;-73
2022/08/17 04:46:32;;;;;;;8.73;6.80;;;26.60;58.60;;;;;;5067483;28;20171;-73
2022/08/17 04:48:59;;;;;;;8.67;6.83;;;26.60;58.60;;;;;;5056448;28;20570;-74
2022/08/17 04:51:35;;;;;;;8.70;7.23;;;26.70;58.60;;;;;;5043894;28;20172;-73
2022/08/17 04:54:14;;;;;;;8.13;7.03;;;26.60;58.60;;;;;;5032781;28;20186;-74
2022/08/17 04:56:40;;;;;;;10.10;8.00;;;26.60;58.60;;;;;;5043431;28;20230;-74
2022/08/17 04:59:15;;;;;;;9.00;7.63;;;26.60;58.90;;;;;;5056315;28;20165;-73
2022/08/17 05:01:45;;;;;;;8.23;7.43;;;26.60;59.10;;;;;;5058188;22;20210;-73
2022/08/17 05:04:16;;;;;;;8.37;7.50;;;26.60;58.90;;;;;;5063938;28;20571;-73
2022/08/17 05:06:42;;;;;;;7.70;7.00;;;26.50;58.90;;;;;;5061574;28;20217;-74
2022/08/17 05:09:12;;;;;;;6.90;6.20;;;26.60;58.90;;;;;;5050830;28;20545;-73
2022/08/17 05:11:38;;;;;;;7.53;6.77;;;26.50;58.80;;;;;;5055083;28;20175;-73
2022/08/17 05:14:22;;;;;;;7.50;6.80;;;26.50;58.60;;;;;;5055657;28;20329;-73
2022/08/17 05:17:06;;;;;;;8.30;6.70;;;26.60;58.50;;;;;;5053983;28;20438;-74
2022/08/17 05:19:46;;;;;;;7.80;6.90;;;26.60;58.40;;;;;;5058500;28;20290;-73
2022/08/17 05:22:14;;;;;;;6.97;6.27;;;26.60;58.30;;;;;;5033178;28;20611;-74
2022/08/17 05:25:10;;;;;;;7.53;6.83;;;26.60;58.20;;;;;;5052493;28;20214;-74
2022/08/17 05:27:35;;;;;;;7.60;6.53;;;26.70;58.20;;;;;;5053257;28;20196;-74
2022/08/17 05:33:35;;;;;;;8.03;6.30;;;26.70;58.00;;;;;;5068082;28;20178;-74
2022/08/17 05:36:26;;;;;;;6.90;6.30;;;26.70;57.90;;;;;;5045924;28;20190;-75
2022/08/17 05:38:52;;;;;;;7.00;6.37;;;26.80;57.80;;;;;;5046142;28;20280;-73
2022/08/17 05:41:18;;;;;;;7.60;6.57;;;26.80;57.70;;;;;;5065915;28;20668;-74
2022/08/17 05:43:43;;;;;;;7.33;6.63;;;26.80;57.70;;;;;;5046344;28;20233;-73
2022/08/17 05:46:20;;;;;;;7.30;6.57;;;26.80;57.50;;;;;;5069331;28;20183;-73
2022/08/17 05:48:56;;;;;;;7.50;5.97;;;26.90;57.50;;;;;;5075718;28;20164;-74
2022/08/17 05:51:51;;;;;;;6.77;6.00;;;26.90;57.30;;;;;;5051408;28;20307;-74
2022/08/17 05:54:43;;;;;;;7.20;6.50;;;26.90;57.10;;;;;;5048992;28;20189;-73
2022/08/17 05:57:18;;;;;;;7.67;6.33;;;27.00;57.10;;;;;;5050648;28;20267;-74
2022/08/17 06:00:06;;;;;;;6.20;5.60;;;27.00;56.90;;;;;;5027585;28;20180;-73
2022/08/17 06:02:40;;;;;;;11.07;7.03;;;27.00;56.80;;;;;;5031719;28;20295;-73
2022/08/17 06:05:31;;;;;;;7.10;6.30;;;27.10;56.70;;;;;;5041910;28;20168;-73
2022/08/17 06:08:37;;;;;;;7.20;6.50;;;27.10;56.60;;;;;;5038981;28;20179;-75
2022/08/17 06:11:21;;;;;;;10.37;6.73;;;27.20;56.40;;;;;;5042754;28;20179;-74
2022/08/17 06:13:53;;;;;;;6.87;6.27;;;27.20;56.30;;;;;;5049570;28;20575;-74
2022/08/17 06:16:30;;;;;;;7.20;6.53;;;27.20;56.10;;;;;;5035207;28;20247;-74
2022/08/17 06:19:22;;;;;;;7.07;6.37;;;27.20;56.10;;;;;;5043325;28;20180;-73
2022/08/17 06:21:51;;;;;;;6.80;6.20;;;27.30;55.90;;;;;;5030960;28;20315;-73
2022/08/17 06:24:47;;;;;;;6.97;6.30;;;27.30;56.00;;;;;;5060932;28;20211;-73
2022/08/17 06:27:24;;;;;;;7.40;6.70;;;27.30;55.90;;;;;;5053368;28;20438;-73
2022/08/17 06:30:04;;;;;;;6.90;6.20;;;27.40;56.10;;;;;;5054005;28;20167;-73
2022/08/17 06:32:31;;;;;;;7.50;6.37;;;27.30;56.00;;;;;;5048088;28;20266;-73
2022/08/17 06:35:06;;;;;;;7.13;6.40;;;27.30;56.20;;;;;;5049429;28;20294;-73
2022/08/17 06:38:00;;;;;;;8.27;6.57;;;27.30;56.10;;;;;;5059538;28;20738;-73
2022/08/17 06:40:54;;;;;;;7.23;6.50;;;27.30;55.90;;;;;;5058222;28;20174;-73
2022/08/17 06:43:40;;;;;;;6.93;6.23;;;27.30;55.90;;;;;;5057187;28;20210;-75
2022/08/17 06:46:12;;;;;;;6.60;6.00;;;27.30;55.80;;;;;;5059728;28;20390;-73
2022/08/17 06:49:11;;;;;;;7.00;6.30;;;27.30;56.00;;;;;;5051850;28;20490;-73
2022/08/17 06:51:42;;;;;;;7.40;6.30;;;27.30;55.80;;;;;;5045319;28;20164;-74
2022/08/17 06:54:34;;;;;;;6.57;5.83;;;27.40;55.90;;;;;;5053285;28;20381;-73
2022/08/17 06:57:03;;;;;;;6.50;5.90;;;27.40;55.80;;;;;;5061823;28;20171;-73
2022/08/17 06:59:45;;;;;;;9.67;6.97;;;27.40;55.60;;;;;;5064730;28;20175;-73
2022/08/17 07:02:17;;;;;;;7.60;6.43;;;27.50;56.10;;;;;;5062242;28;20582;-73
2022/08/17 07:04:44;;;;;;;7.70;7.00;;;27.50;55.90;;;;;;5064938;28;20206;-73
2022/08/17 07:09:58;;;;;;;7.80;6.47;;;27.50;56.10;;;;;;5063194;28;20249;-74
2022/08/17 07:12:36;;;;;;;6.97;6.30;;;27.50;56.50;;;;;;5048811;28;20479;-73
2022/08/17 07:15:24;;;;;;;9.40;7.00;;;27.50;56.30;;;;;;5047467;28;20416;-75
2022/08/17 07:17:51;;;;;;;8.57;6.57;;;27.60;55.90;;;;;;5061536;28;20171;-74
2022/08/17 07:20:21;;;;;;;7.10;6.40;;;27.60;55.70;;;;;;5051576;28;20163;-74
2022/08/17 07:23:00;;;;;;;7.77;6.60;;;27.70;55.20;;;;;;5059029;28;20397;-73
2022/08/17 07:25:27;;;;;;;7.20;6.00;;;27.80;55.90;;;;;;5058915;28;20167;-74
2022/08/17 07:27:58;;;;;;;7.73;6.93;;;27.90;55.20;;;;;;5055936;28;20466;-74
2022/08/17 07:30:36;;;;;;;7.60;6.30;;;27.90;55.20;;;;;;5044041;28;20195;-74
2022/08/17 07:33:18;;;;;;;7.17;6.47;;;28.00;54.30;;;;;;5054064;28;20191;-74
2022/08/17 07:35:47;;;;;;;7.70;6.10;;;28.00;54.40;;;;;;5058077;28;20171;-74
2022/08/17 07:38:30;;;;;;;6.77;5.90;;;28.00;54.40;;;;;;5060007;28;20175;-74
2022/08/17 07:41:19;;;;;;;7.23;6.00;;;28.10;54.40;;;;;;5062013;28;20175;-74
2022/08/17 07:44:53;;;;;;;6.97;6.20;;;28.30;53.90;;;;;;5040283;28;20542;-74
2022/08/17 07:50:25;;;;;;;8.73;5.80;;;28.70;53.10;;;;;;5053849;28;20167;-76
2022/08/17 07:52:51;;;;;;;8.93;6.00;;;29.30;52.30;;;;;;5059753;28;20167;-73
2022/08/17 07:55:31;;;;;;;7.40;6.13;;;29.60;51.60;;;;;;5063350;28;20172;-74
2022/08/17 07:57:58;;;;;;;6.20;5.53;;;29.50;51.40;;;;;;5062860;28;20248;-74
2022/08/17 08:00:25;;;;;;;7.00;5.50;;;29.40;51.50;;;;;;5063533;28;20272;-74
2022/08/17 08:03:02;;;;;;;7.10;5.72;;;29.30;51.50;;;;;;5057313;28;20211;-74
2022/08/17 08:05:50;;;;;;;6.72;5.57;;;29.10;51.50;;;;;;5058288;28;20168;-74
2022/08/17 08:08:29;;;;;;;8.10;5.72;;;29.10;51.60;;;;;;5047329;28;20327;-74
2022/08/17 08:11:03;;;;;;;5.80;5.22;;;29.20;51.50;;;;;;5044581;28;20163;-74
2022/08/17 08:13:31;;;;;;;6.30;5.70;;;29.20;51.40;;;;;;5041299;28;20285;-74
2022/08/17 08:16:12;;;;;;;5.40;4.90;;;29.20;51.50;;;;;;5059931;28;20182;-74
2022/08/17 08:18:44;;;;;;;5.10;4.60;;;29.10;51.40;;;;;;5067856;28;20526;-74
2022/08/17 08:21:27;;;;;;;5.50;5.00;;;29.40;51.30;;;;;;5067751;28;20186;-74
2022/08/17 08:24:12;;;;;;;5.90;5.15;;;29.60;51.10;;;;;;5060866;28;20515;-73
2022/08/17 08:27:19;;;;;;;6.47;4.80;;;29.80;50.80;;;;;;5064486;28;20336;-73
2022/08/17 08:30:05;;;;;;;6.03;5.35;;;29.80;50.40;;;;;;5057748;28;20175;-73
2022/08/17 08:33:07;;;;;;;5.88;4.93;;;29.90;50.40;;;;;;5064512;28;20175;-73
2022/08/17 08:36:14;;;;;;;5.30;4.80;;;29.90;50.20;;;;;;5068306;28;20549;-73
2022/08/17 08:39:02;;;;;;;6.78;4.88;;;30.50;49.90;;;;;;5048525;28;20282;-72
2022/08/17 08:41:39;;;;;;;5.80;4.72;;;30.90;49.20;;;;;;5051677;28;20533;-73
2022/08/17 08:44:20;;;;;;;6.05;4.88;;;31.30;48.70;;;;;;5066259;28;20218;-73
2022/08/17 08:47:10;;;;;;;5.13;4.63;;;31.10;48.60;;;;;;5062113;28;20186;-73
2022/08/17 08:49:44;;;;;;;5.03;4.53;;;30.60;48.80;;;;;;5060242;28;20168;-72
2022/08/17 08:52:36;;;;;;;5.25;4.70;;;30.40;49.20;;;;;;5061130;28;20371;-73
2022/08/17 08:55:20;;;;;;;5.30;4.32;;;30.30;49.40;;;;;;5066418;28;20176;-73
2022/08/17 08:57:55;;;;;;;4.60;4.20;;;30.30;49.50;;;;;;5072360;28;20171;-75
2022/08/17 09:00:24;;;;;;;5.85;4.72;;;30.40;49.30;;;;;;5072688;28;20168;-73
2022/08/17 09:03:16;;;;;;;4.70;4.30;;;30.50;49.20;;;;;;5065021;28;20275;-73
2022/08/17 09:05:47;;;;;;;5.10;4.35;;;30.50;49.10;;;;;;5048515;28;20164;-73
2022/08/17 09:08:42;;;;;;;5.93;4.68;;;30.30;49.40;;;;;;5067564;28;20175;-73
2022/08/17 09:11:23;;;;;;;4.55;4.18;;;30.10;49.70;;;;;;5063128;28;20497;-72
2022/08/17 09:14:30;;;;;;;5.43;4.95;;;29.90;50.00;;;;;;4984525;28;20164;-72
2022/08/17 09:17:42;;;;;;;4.78;4.32;;;29.70;50.20;;;;;;5060156;28;20179;-73
2022/08/17 09:20:26;;;;;;;5.15;4.65;;;29.50;50.30;;;;;;5067891;28;20176;-73
2022/08/17 09:23:06;;;;;;;4.63;4.22;;;29.40;50.80;;;;;;5050305;28;20400;-73
2022/08/17 09:25:44;;;;;;;5.18;4.53;;;29.30;50.80;;;;;;5061296;28;20168;-73
2022/08/17 09:28:43;;;;;;;5.30;4.38;;;29.30;50.90;;;;;;5062299;28;20235;-74
2022/08/17 09:31:15;;;;;;;4.55;4.15;;;29.20;51.10;;;;;;5059567;28;20361;-73
2022/08/17 09:33:45;;;;;;;6.47;4.40;;;29.10;51.20;;;;;;5057076;28;20367;-74
2022/08/17 09:37:02;;;;;;;5.95;4.60;;;29.10;51.30;;;;;;5067567;28;20442;-73
2022/08/17 09:40:08;;;;;;;5.75;5.07;;;29.00;51.40;;;;;;5047049;28;20488;-73
2022/08/17 09:42:49;;;;;;;6.40;4.47;;;29.00;51.40;;;;;;5063611;28;20174;-74
2022/08/17 09:49:08;;;;;;;4.70;4.30;;;29.00;51.50;;;;;;5061889;28;20610;-74
2022/08/17 09:51:55;;;;;;;5.18;4.78;;;29.00;51.60;;;;;;5069528;28;20229;-73
2022/08/17 09:55:17;;;;;;;5.47;4.67;;;28.90;51.60;;;;;;5067175;28;20172;-74
2022/08/17 09:58:15;;;;;;;6.70;4.60;;;28.90;51.60;;;;;;5069428;28;20176;-73
2022/08/17 10:04:09;;;;;;;7.53;6.73;;;28.80;53.40;;;;;;5068216;28;20273;-72
2022/08/17 10:06:59;;;;;;;7.20;5.43;;;28.60;53.90;;;;;;5067074;28;20203;-73
2022/08/17 10:09:39;;;;;;;10.20;6.93;;;28.60;53.20;;;;;;5042189;28;20203;-73
2022/08/17 10:12:25;;;;;;;8.33;6.50;;;28.60;53.80;;;;;;5032206;28;20916;-73
2022/08/17 10:15:12;;;;;;;6.43;5.63;;;28.50;53.90;;;;;;5065759;28;20184;-73
2022/08/17 10:17:54;;;;;;;6.00;5.50;;;28.50;53.70;;;;;;5042715;28;20616;-73
2022/08/17 10:26:11;;;;;;;6.20;5.60;;;28.50;53.60;;;;;;5063397;28;20163;-73
2022/08/17 10:26:27;;;;;;;6.03;5.50;;;28.50;53.40;;;;;;5050150;28;20182;-73
2022/08/17 10:29:08;;;;;;;6.13;5.57;;;28.50;53.70;;;;;;5046913;28;20229;-73
2022/08/17 10:31:56;;;;;;;6.80;6.17;;;28.50;53.30;;;;;;5052103;28;20198;-73
2022/08/17 10:34:35;;;;;;;6.20;5.60;;;28.50;53.50;;;;;;5063626;28;20192;-73
2022/08/17 10:37:04;;;;;;;6.73;6.10;;;28.50;53.30;;;;;;5073619;28;20761;-73
2022/08/17 10:39:45;;;;;;;7.50;5.90;;;28.50;53.30;;;;;;5064179;28;20182;-73
2022/08/17 10:42:25;;;;;;;6.20;5.60;;;28.50;53.20;;;;;;5061730;28;20198;-73
2022/08/17 10:48:23;;;;;;;6.57;5.87;;;28.50;53.10;;;;;;5058099;28;20338;-73
2022/08/17 10:50:49;;;;;;;6.20;5.60;;;28.60;53.30;;;;;;5064355;28;20457;-73
2022/08/17 10:53:33;;;;;;;8.03;7.23;;;28.50;53.40;;;;;;5057749;28;20201;-73
2022/08/17 10:56:12;;;;;;;6.83;6.13;;;28.50;53.50;;;;;;5056026;28;20281;-73
2022/08/17 10:58:59;;;;;;;7.57;6.27;;;28.50;53.50;;;;;;5056876;28;20171;-73
2022/08/17 11:01:31;;;;;;;6.70;6.00;;;28.50;53.40;;;;;;5061134;28;20295;-73
2022/08/17 11:04:06;;;;;;;7.63;6.83;;;28.50;53.60;;;;;;5054342;28;20211;-73
2022/08/17 11:06:50;;;;;;;8.20;6.60;;;28.40;53.70;;;;;;5059622;28;20175;-73
2022/08/17 11:09:25;;;;;;;8.50;6.33;;;28.40;54.30;;;;;;5061573;28;20284;-73
2022/08/17 11:12:14;;;;;;;7.10;6.40;;;28.30;54.20;;;;;;5043157;28;20176;-73
2022/08/17 11:15:00;;;;;;;7.03;6.43;;;28.40;53.80;;;;;;5066829;28;20560;-73
2022/08/17 11:17:49;;;;;;;8.03;6.80;;;28.40;54.00;;;;;;5066773;28;20254;-73
2022/08/17 11:20:21;;;;;;;6.90;6.30;;;28.40;53.90;;;;;;5059126;28;20806;-74
2022/08/17 11:23:06;;;;;;;7.10;6.40;;;28.30;53.80;;;;;;5058910;28;20562;-74
2022/08/17 11:29:00;;;;;;;7.63;6.53;;;28.30;54.40;;;;;;5047207;28;20401;-74
2022/08/17 11:34:46;;;;;;;6.97;5.83;;;28.30;53.80;;;;;;5059381;28;20396;-74
2022/08/17 11:37:28;;;;;;;6.97;6.22;;;28.40;53.70;;;;;;5060061;28;20574;-74
2022/08/17 11:52:49;;;;;;;10.17;8.20;;;28.50;53.90;;;;;;5058414;28;20354;-74
2022/08/17 11:55:27;;;;;;;8.57;7.77;;;28.40;54.90;;;;;;5057653;28;20263;-74
2022/08/17 11:58:28;;;;;;;11.27;8.37;;;28.40;55.00;;;;;;5054549;28;20500;-74
2022/08/17 12:01:47;;;;;;;7.80;7.10;;;28.40;55.20;;;;;;5056486;28;20522;-74
2022/08/17 12:04:27;;;;;;;8.53;7.70;;;28.50;53.90;;;;;;5058618;28;20659;-73
2022/08/17 12:07:20;;;;;;;7.93;7.20;;;28.50;53.90;;;;;;5058786;28;20262;-73
2022/08/17 12:09:56;;;;;;;6.93;6.23;;;28.70;53.40;;;;;;5062355;28;20780;-74
2022/08/17 12:12:34;;;;;;;7.55;6.57;;;28.90;53.20;;;;;;5070077;28;20170;-74
2022/08/17 12:15:02;;;;;;;7.05;6.35;;;28.90;52.90;;;;;;5065928;28;20171;-76
2022/08/17 12:18:07;;;;;;;12.18;10.98;;;29.00;52.80;;;;;;5060259;28;20171;-74
2022/08/17 12:21:03;;;;;;;8.00;6.60;;;29.00;53.50;;;;;;5055751;28;20172;-74
2022/08/17 12:23:41;;;;;;;7.30;6.70;;;29.00;52.70;;;;;;5062484;28;20199;-73
2022/08/17 12:30:10;;;;;;;7.03;6.32;;;29.10;52.50;;;;;;5061407;28;20340;-73
2022/08/17 12:32:39;;;;;;;8.20;6.63;;;29.20;52.50;;;;;;5058415;28;20167;-73
2022/08/17 12:35:20;;;;;;;7.53;6.72;;;29.20;52.40;;;;;;5058068;28;20320;-73
2022/08/17 12:37:48;;;;;;;7.38;6.68;;;29.20;52.20;;;;;;5056966;28;20252;-73
2022/08/17 12:43:36;;;;;;;7.13;6.53;;;29.30;52.30;;;;;;5039444;28;20554;-73
2022/08/17 12:46:02;;;;;;;7.63;6.93;;;29.30;52.20;;;;;;5043743;28;20572;-73
2022/08/17 12:48:33;;;;;;;7.53;6.88;;;29.30;52.10;;;;;;5054346;28;20749;-73
2022/08/17 12:51:01;;;;;;;9.25;6.85;;;29.40;52.20;;;;;;5046977;28;20176;-73
2022/08/17 12:53:29;;;;;;;7.57;6.88;;;29.40;52.20;;;;;;5062997;28;20199;-73
2022/08/17 12:56:48;;;;;;;10.73;9.73;;;29.40;52.20;;;;;;5063674;28;20172;-73
2022/08/17 12:59:42;;;;;;;7.93;6.43;;;29.50;52.30;;;;;;5050575;28;20732;-73
2022/08/17 13:02:51;;;;;;;8.95;7.30;;;29.60;52.10;;;;;;5068667;28;20604;-73
2022/08/17 13:05:26;;;;;;;8.98;7.15;;;29.60;52.00;;;;;;5068206;28;20196;-73
2022/08/17 13:11:23;;;;;;;9.60;7.97;;;29.70;52.50;;;;;;5068050;28;20194;-74
2022/08/17 13:14:08;;;;;;;7.47;6.85;;;29.70;52.20;;;;;;5072378;28;20444;-73
2022/08/17 13:16:35;;;;;;;8.00;7.00;;;29.70;52.30;;;;;;5069542;28;20561;-74
2022/08/17 13:19:26;;;;;;;8.20;7.40;;;29.70;52.20;;;;;;5057808;28;20174;-73
2022/08/17 13:21:56;;;;;;;7.82;7.13;;;29.60;52.20;;;;;;5066952;28;20430;-75
2022/08/17 13:24:28;;;;;;;7.80;7.03;;;29.60;52.10;;;;;;5064065;28;20218;-73
2022/08/17 13:30:31;;;;;;;7.82;7.03;;;29.60;52.50;;;;;;5059355;28;20283;-73
2022/08/17 13:32:59;;;;;;;7.75;7.05;;;29.60;52.60;;;;;;5066369;28;20257;-74
2022/08/17 13:38:46;;;;;;;8.68;7.88;;;29.60;52.50;;;;;;5053961;28;20447;-73
2022/08/17 13:41:33;;;;;;;8.05;7.35;;;29.50;52.60;;;;;;5071387;28;20270;-73
2022/08/17 13:43:59;;;;;;;8.73;8.02;;;29.50;52.70;;;;;;5069712;28;20736;-73
2022/08/17 13:46:30;;;;;;;7.95;7.28;;;29.50;52.70;;;;;;5067573;28;20593;-73
2022/08/17 13:55:52;;;;;;;8.27;7.57;;;29.60;52.70;;;;;;5064699;28;20329;-73
2022/08/17 13:58:27;;;;;;;10.10;8.93;;;29.60;53.00;;;;;;5063332;28;20451;-73
2022/08/17 14:00:57;;;;;;;9.05;8.15;;;29.60;52.70;;;;;;5049186;28;20175;-74
2022/08/17 14:03:23;;;;;;;9.40;8.50;;;29.70;52.70;;;;;;5060198;28;20213;-73
2022/08/17 14:05:51;;;;;;;10.70;9.68;;;29.70;52.80;;;;;;5065543;28;20458;-73
2022/08/17 14:08:18;;;;;;;9.63;7.95;;;29.70;53.00;;;;;;5068505;28;20258;-73
2022/08/17 14:10:56;;;;;;;9.90;8.82;;;29.70;52.90;;;;;;5058808;28;20233;-73
2022/08/17 14:13:22;;;;;;;9.20;8.00;;;29.70;52.70;;;;;;5059598;28;20518;-73
2022/08/17 14:15:48;;;;;;;10.38;8.52;;;29.80;52.80;;;;;;5062567;28;20595;-74
2022/08/17 14:18:16;;;;;;;8.45;7.65;;;29.80;52.80;;;;;;5058956;28;20172;-73
2022/08/17 14:20:43;;;;;;;9.35;8.32;;;29.80;52.80;;;;;;5061110;28;20171;-73
2022/08/17 14:23:09;;;;;;;9.07;8.30;;;29.80;52.80;;;;;;5064561;28;20344;-73
2022/08/17 14:25:35;;;;;;;9.82;8.05;;;29.80;52.80;;;;;;5051786;28;20321;-73
2022/08/17 14:28:57;;;;;;;8.35;7.63;;;29.80;52.70;;;;;;5055467;28;20172;-73
2022/08/17 14:31:23;;;;;;;8.98;8.18;;;29.80;52.80;;;;;;5063959;28;20595;-73
2022/08/17 14:33:50;;;;;;;9.07;8.27;;;29.90;52.90;;;;;;5059193;28;20178;-73
2022/08/17 14:36:16;;;;;;;8.75;7.95;;;29.90;52.80;;;;;;5059485;28;20254;-73
2022/08/17 14:38:43;;;;;;;12.52;11.27;;;29.90;52.80;;;;;;5058637;28;20199;-73
2022/08/17 14:41:16;;;;;;;9.13;8.23;;;29.90;53.10;;;;;;5063571;28;20178;-74
2022/08/17 14:43:45;;;;;;;12.32;10.48;;;29.90;52.90;;;;;;5053167;28;20209;-73
2022/08/17 14:46:11;;;;;;;9.38;8.48;;;30.00;53.00;;;;;;5064769;28;20159;-74
2022/08/17 14:48:39;;;;;;;9.23;8.43;;;29.90;53.10;;;;;;5058614;28;20239;-73
2022/08/17 14:51:06;;;;;;;11.55;9.40;;;29.90;53.00;;;;;;5049598;28;20163;-74
2022/08/17 14:53:35;;;;;;;9.00;8.20;;;29.90;52.90;;;;;;5055122;28;20534;-74
2022/08/17 14:56:37;;;;;;;10.65;9.55;;;30.00;53.20;;;;;;5061729;28;20463;-73
2022/08/17 15:02:28;;;;;;;10.82;9.75;;;30.00;53.40;;;;;;5060661;28;20194;-73
2022/08/17 15:08:09;;;;;;;16.60;14.88;;;30.00;54.00;;;;;;5050078;28;20210;-73
2022/08/17 15:10:35;;;;;;;11.85;10.65;;;30.00;54.90;;;;;;5041661;28;20274;-73
2022/08/17 15:13:02;;;;;;;14.40;13.05;;;30.10;54.00;;;;;;5036128;28;20302;-73
2022/08/17 15:15:28;;;;;;;15.25;13.75;;;30.10;53.70;;;;;;5054755;28;20267;-74
2022/08/17 15:17:54;;;;;;;16.30;14.75;;;30.10;54.10;;;;;;5022958;28;20176;-73
2022/08/17 15:20:43;;;;;;;17.90;16.20;;;30.10;54.60;;;;;;5039298;28;20211;-73
2022/08/17 15:23:14;;;;;;;14.65;13.15;;;30.10;54.20;;;;;;5048076;28;20720;-73
2022/08/17 15:25:41;;;;;;;10.57;9.43;;;30.10;54.30;;;;;;5049449;28;20224;-73
2022/08/17 15:28:06;;;;;;;10.32;9.30;;;30.10;53.40;;;;;;5040145;28;20573;-74
2022/08/17 15:30:34;;;;;;;9.93;9.13;;;30.10;53.50;;;;;;5050414;28;20327;-73
2022/08/17 15:33:23;;;;;;;13.80;12.45;;;30.10;53.80;;;;;;5049876;28;20169;-74
2022/08/17 15:35:56;;;;;;;12.45;11.10;;;30.10;54.70;;;;;;5042730;28;20247;-75
2022/08/17 15:38:22;;;;;;;11.95;10.80;;;30.10;54.20;;;;;;5044186;28;20221;-74
2022/08/17 15:41:11;;;;;;;14.60;13.20;;;30.10;54.50;;;;;;5041578;28;20320;-73